sensor_id;sensor_type;location;lat;lon;timestamp;pressure;altitude;pressure_sealevel;temperature;humidity
19672;BME280;9983;51.114;13.788;2023-04-05T00:01:50;100130.88;;;2.71;72.87
19672;BME280;9983;51.114;13.788;2023-04-05T00:06:52;100125.59;;;3.55;68.89
19672;BME280;9983;51.114;13.788;2023-04-05T00:11:53;100128.53;;;2.79;73.80
19672;BME280;9983;51.114;13.788;2023-04-05T00:16:53;100124.66;;;3.09;74.41
19672;BME280;9983;51.114;13.788;2023-04-05T00:21:54;100120.97;;;2.37;77.66
19672;BME280;9983;51.114;13.788;2023-04-05T00:26:54;100118.84;;;2.67;75.34
19672;BME280;9983;51.114;13.788;2023-04-05T00:31:56;100109.59;;;3.33;72.33
19672;BME280;9983;51.114;13.788;2023-04-05T00:36:56;100112.28;;;2.35;77.70
19672;BME280;9983;51.114;13.788;2023-04-05T00:41:56;100117.81;;;2.19;79.23
19672;BME280;9983;51.114;13.788;2023-04-05T00:46:56;100108.09;;;3.18;73.77
19672;BME280;9983;51.114;13.788;2023-04-05T00:51:57;100103.09;;;3.37;72.10
19672;BME280;9983;51.114;13.788;2023-04-05T00:56:58;100104.13;;;2.99;74.02
19672;BME280;9983;51.114;13.788;2023-04-05T01:02:11;100094.03;;;2.68;76.82
19672;BME280;9983;51.114;13.788;2023-04-05T01:12:59;100098.50;;;2.55;76.96
19672;BME280;9983;51.114;13.788;2023-04-05T01:18:00;100101.53;;;2.25;80.04
19672;BME280;9983;51.114;13.788;2023-04-05T01:28:55;100081.88;;;2.53;78.43
19672;BME280;9983;51.114;13.788;2023-04-05T01:34:02;100083.88;;;3.22;75.61
19672;BME280;9983;51.114;13.788;2023-04-05T01:39:04;100079.88;;;2.56;77.48
19672;BME280;9983;51.114;13.788;2023-04-05T01:44:07;100067.91;;;3.35;74.27
19672;BME280;9983;51.114;13.788;2023-04-05T01:49:09;100070.28;;;3.27;73.68
19672;BME280;9983;51.114;13.788;2023-04-05T01:54:09;100070.91;;;3.65;71.94
19672;BME280;9983;51.114;13.788;2023-04-05T01:59:10;100061.56;;;3.95;69.79
19672;BME280;9983;51.114;13.788;2023-04-05T02:04:10;100066.84;;;3.37;73.67
19672;BME280;9983;51.114;13.788;2023-04-05T02:09:10;100066.78;;;3.50;70.57
19672;BME280;9983;51.114;13.788;2023-04-05T02:14:11;100066.50;;;3.42;74.20
19672;BME280;9983;51.114;13.788;2023-04-05T02:19:13;100071.28;;;3.37;74.96
19672;BME280;9983;51.114;13.788;2023-04-05T02:24:15;100060.13;;;3.21;75.71
19672;BME280;9983;51.114;13.788;2023-04-05T02:29:15;100053.81;;;2.63;78.43
19672;BME280;9983;51.114;13.788;2023-04-05T02:34:15;100052.84;;;3.00;76.20
19672;BME280;9983;51.114;13.788;2023-04-05T02:39:15;100049.84;;;2.45;80.45
19672;BME280;9983;51.114;13.788;2023-04-05T02:44:16;100051.25;;;2.74;78.49
19672;BME280;9983;51.114;13.788;2023-04-05T02:49:16;100054.84;;;2.73;78.22
19672;BME280;9983;51.114;13.788;2023-04-05T02:54:16;100052.56;;;2.56;80.28
19672;BME280;9983;51.114;13.788;2023-04-05T02:59:16;100044.69;;;2.31;81.68
19672;BME280;9983;51.114;13.788;2023-04-05T03:04:17;100044.78;;;2.42;82.84
19672;BME280;9983;51.114;13.788;2023-04-05T03:09:17;100039.63;;;2.64;81.82
19672;BME280;9983;51.114;13.788;2023-04-05T03:14:18;100040.75;;;2.96;80.22
19672;BME280;9983;51.114;13.788;2023-04-05T03:19:18;100037.09;;;3.34;76.68
19672;BME280;9983;51.114;13.788;2023-04-05T03:24:21;100037.16;;;2.97;79.63
19672;BME280;9983;51.114;13.788;2023-04-05T03:29:21;100032.63;;;3.11;79.05
19672;BME280;9983;51.114;13.788;2023-04-05T03:34:21;100028.97;;;2.77;82.88
19672;BME280;9983;51.114;13.788;2023-04-05T03:39:27;100037.56;;;3.39;78.49
19672;BME280;9983;51.114;13.788;2023-04-05T03:44:27;100039.75;;;2.86;81.01
19672;BME280;9983;51.114;13.788;2023-04-05T03:49:28;100044.97;;;2.39;84.46
19672;BME280;9983;51.114;13.788;2023-04-05T03:54:28;100043.19;;;2.76;81.31
19672;BME280;9983;51.114;13.788;2023-04-05T03:59:29;100041.38;;;2.40;84.54
19672;BME280;9983;51.114;13.788;2023-04-05T04:04:29;100043.44;;;2.60;83.92
19672;BME280;9983;51.114;13.788;2023-04-05T04:09:29;100046.97;;;2.84;81.75
19672;BME280;9983;51.114;13.788;2023-04-05T04:14:30;100044.78;;;3.37;77.48
19672;BME280;9983;51.114;13.788;2023-04-05T04:19:31;100040.31;;;3.02;79.69
19672;BME280;9983;51.114;13.788;2023-04-05T04:24:31;100038.31;;;3.52;76.87
19672;BME280;9983;51.114;13.788;2023-04-05T04:29:35;100039.03;;;2.48;84.31
19672;BME280;9983;51.114;13.788;2023-04-05T04:34:37;100041.75;;;1.97;87.79
19672;BME280;9983;51.114;13.788;2023-04-05T04:39:44;100038.13;;;2.23;86.56
19672;BME280;9983;51.114;13.788;2023-04-05T04:44:46;100041.75;;;2.59;83.04
19672;BME280;9983;51.114;13.788;2023-04-05T04:49:46;100033.19;;;1.81;86.92
19672;BME280;9983;51.114;13.788;2023-04-05T04:54:46;100037.72;;;1.79;88.24
19672;BME280;9983;51.114;13.788;2023-04-05T04:59:47;100031.91;;;2.24;85.69
19672;BME280;9983;51.114;13.788;2023-04-05T05:04:47;100049.69;;;1.97;87.00
19672;BME280;9983;51.114;13.788;2023-04-05T05:09:47;100053.69;;;1.65;88.63
19672;BME280;9983;51.114;13.788;2023-04-05T05:14:51;100041.88;;;2.08;89.70
19672;BME280;9983;51.114;13.788;2023-04-05T05:19:52;100033.66;;;2.37;86.91
19672;BME280;9983;51.114;13.788;2023-04-05T05:24:52;100037.25;;;2.36;87.86
19672;BME280;9983;51.114;13.788;2023-04-05T05:29:53;100041.75;;;1.97;87.94
19672;BME280;9983;51.114;13.788;2023-04-05T05:34:53;100037.06;;;2.75;84.89
19672;BME280;9983;51.114;13.788;2023-04-05T05:39:53;100040.69;;;2.85;83.94
19672;BME280;9983;51.114;13.788;2023-04-05T05:44:54;100043.22;;;3.11;83.76
19672;BME280;9983;51.114;13.788;2023-04-05T05:49:54;100031.78;;;3.45;81.85
19672;BME280;9983;51.114;13.788;2023-04-05T05:54:54;100033.06;;;3.63;81.30
19672;BME280;9983;51.114;13.788;2023-04-05T05:59:54;100029.91;;;3.69;80.83
19672;BME280;9983;51.114;13.788;2023-04-05T06:04:55;100032.13;;;3.87;79.10
19672;BME280;9983;51.114;13.788;2023-04-05T06:09:57;100039.38;;;3.85;74.04
19672;BME280;9983;51.114;13.788;2023-04-05T06:14:59;100045.88;;;4.58;73.68
19672;BME280;9983;51.114;13.788;2023-04-05T06:19:59;100038.16;;;4.44;68.81
19672;BME280;9983;51.114;13.788;2023-04-05T06:24:59;100042.06;;;4.18;68.04
19672;BME280;9983;51.114;13.788;2023-04-05T06:30:00;100043.47;;;4.44;66.33
19672;BME280;9983;51.114;13.788;2023-04-05T06:35:00;100031.50;;;4.72;65.14
19672;BME280;9983;51.114;13.788;2023-04-05T06:40:03;100029.44;;;5.19;64.66
19672;BME280;9983;51.114;13.788;2023-04-05T06:45:03;100029.25;;;5.31;62.48
19672;BME280;9983;51.114;13.788;2023-04-05T06:50:06;100027.69;;;5.50;61.66
19672;BME280;9983;51.114;13.788;2023-04-05T06:55:07;100020.16;;;5.55;62.20
19672;BME280;9983;51.114;13.788;2023-04-05T07:00:07;100029.44;;;5.19;61.24
19672;BME280;9983;51.114;13.788;2023-04-05T07:05:11;100031.09;;;5.20;61.83
19672;BME280;9983;51.114;13.788;2023-04-05T07:10:11;100033.78;;;5.41;61.67
19672;BME280;9983;51.114;13.788;2023-04-05T07:15:12;100021.84;;;5.56;62.25
19672;BME280;9983;51.114;13.788;2023-04-05T07:20:12;100024.13;;;5.81;61.01
19672;BME280;9983;51.114;13.788;2023-04-05T07:25:13;100033.28;;;5.88;58.83
19672;BME280;9983;51.114;13.788;2023-04-05T07:30:13;100018.28;;;6.08;58.72
19672;BME280;9983;51.114;13.788;2023-04-05T07:35:13;100014.41;;;6.22;58.60
19672;BME280;9983;51.114;13.788;2023-04-05T07:40:14;100024.50;;;6.28;56.95
19672;BME280;9983;51.114;13.788;2023-04-05T07:45:15;100021.31;;;6.83;56.28
19672;BME280;9983;51.114;13.788;2023-04-05T07:50:15;100020.41;;;6.54;55.91
19672;BME280;9983;51.114;13.788;2023-04-05T07:55:15;100018.50;;;6.95;54.41
19672;BME280;9983;51.114;13.788;2023-04-05T08:00:16;100009.78;;;6.73;52.80
19672;BME280;9983;51.114;13.788;2023-04-05T08:05:16;100009.97;;;7.20;52.11
19672;BME280;9983;51.114;13.788;2023-04-05T08:10:16;100008.16;;;7.40;51.10
19672;BME280;9983;51.114;13.788;2023-04-05T08:15:17;100003.06;;;7.66;53.17
19672;BME280;9983;51.114;13.788;2023-04-05T08:20:17;100006.47;;;7.29;50.50
19672;BME280;9983;51.114;13.788;2023-04-05T08:25:17;100006.78;;;7.26;49.31
19672;BME280;9983;51.114;13.788;2023-04-05T08:30:18;100005.09;;;7.44;49.98
19672;BME280;9983;51.114;13.788;2023-04-05T08:35:18;99996.47;;;8.16;49.38
19672;BME280;9983;51.114;13.788;2023-04-05T08:40:19;100003.16;;;7.93;45.76
19672;BME280;9983;51.114;13.788;2023-04-05T08:45:21;99987.28;;;7.91;46.71
19672;BME280;9983;51.114;13.788;2023-04-05T08:50:22;99992.13;;;8.52;48.34
19672;BME280;9983;51.114;13.788;2023-04-05T08:55:24;99985.09;;;8.51;46.37
19672;BME280;9983;51.114;13.788;2023-04-05T09:00:25;99991.56;;;8.49;45.79
19672;BME280;9983;51.114;13.788;2023-04-05T09:05:27;99993.59;;;8.82;45.33
19672;BME280;9983;51.114;13.788;2023-04-05T09:10:28;99993.91;;;8.79;44.51
19672;BME280;9983;51.114;13.788;2023-04-05T09:15:29;99989.19;;;9.08;42.86
19672;BME280;9983;51.114;13.788;2023-04-05T09:20:29;99996.56;;;9.50;42.06
19672;BME280;9983;51.114;13.788;2023-04-05T09:25:40;99990.47;;;9.22;42.79
19672;BME280;9983;51.114;13.788;2023-04-05T09:30:45;99987.81;;;9.04;41.07
19672;BME280;9983;51.114;13.788;2023-04-05T09:35:48;99993.69;;;8.90;42.44
19672;BME280;9983;51.114;13.788;2023-04-05T09:40:49;99988.19;;;8.92;43.14
19672;BME280;9983;51.114;13.788;2023-04-05T09:45:51;99992.41;;;8.94;42.29
19672;BME280;9983;51.114;13.788;2023-04-05T09:51:03;99987.22;;;9.10;39.63
19672;BME280;9983;51.114;13.788;2023-04-05T09:56:10;99973.66;;;9.30;41.76
19672;BME280;9983;51.114;13.788;2023-04-05T10:01:10;99980.69;;;9.74;39.00
19672;BME280;9983;51.114;13.788;2023-04-05T10:06:14;99966.09;;;10.62;37.96
19672;BME280;9983;51.114;13.788;2023-04-05T10:11:17;99962.69;;;10.44;37.59
19672;BME280;9983;51.114;13.788;2023-04-05T10:16:20;99966.81;;;10.89;36.77
19672;BME280;9983;51.114;13.788;2023-04-05T10:21:28;99965.47;;;10.93;37.24
19672;BME280;9983;51.114;13.788;2023-04-05T10:26:39;99960.38;;;10.65;37.10
19672;BME280;9983;51.114;13.788;2023-04-05T10:31:49;99964.56;;;9.66;38.94
19672;BME280;9983;51.114;13.788;2023-04-05T10:36:57;99951.19;;;10.18;39.21
19672;BME280;9983;51.114;13.788;2023-04-05T10:42:10;99947.00;;;10.82;38.32
19672;BME280;9983;51.114;13.788;2023-04-05T10:47:13;99951.78;;;11.12;35.64
19672;BME280;9983;51.114;13.788;2023-04-05T10:52:16;99949.69;;;10.82;34.83
19672;BME280;9983;51.114;13.788;2023-04-05T10:57:18;99950.09;;;11.27;34.65
19672;BME280;9983;51.114;13.788;2023-04-05T11:02:19;99944.84;;;12.38;33.46
19672;BME280;9983;51.114;13.788;2023-04-05T11:07:20;99958.28;;;11.58;33.72
19672;BME280;9983;51.114;13.788;2023-04-05T11:13:01;99943.88;;;11.43;34.11
19672;BME280;9983;51.114;13.788;2023-04-05T11:18:20;99944.00;;;10.85;35.74
19672;BME280;9983;51.114;13.788;2023-04-05T11:23:23;99941.66;;;10.90;36.99
19672;BME280;9983;51.114;13.788;2023-04-05T11:28:37;99947.69;;;10.76;35.92
19672;BME280;9983;51.114;13.788;2023-04-05T11:44:21;99925.34;;;12.36;32.06
19672;BME280;9983;51.114;13.788;2023-04-05T11:49:24;99916.94;;;13.38;31.09
19672;BME280;9983;51.114;13.788;2023-04-05T11:54:31;99917.56;;;14.07;31.17
19672;BME280;9983;51.114;13.788;2023-04-05T11:59:33;99919.63;;;14.05;31.04
19672;BME280;9983;51.114;13.788;2023-04-05T12:04:35;99914.13;;;13.69;32.35
19672;BME280;9983;51.114;13.788;2023-04-05T12:09:35;99920.56;;;11.44;34.91
19672;BME280;9983;51.114;13.788;2023-04-05T12:14:37;99919.53;;;11.61;35.39
19672;BME280;9983;51.114;13.788;2023-04-05T12:19:37;99925.72;;;11.86;35.34
19672;BME280;9983;51.114;13.788;2023-04-05T12:24:38;99916.75;;;12.01;34.55
19672;BME280;9983;51.114;13.788;2023-04-05T12:29:38;99909.47;;;11.14;34.62
19672;BME280;9983;51.114;13.788;2023-04-05T12:34:46;99909.09;;;11.58;33.62
19672;BME280;9983;51.114;13.788;2023-04-05T12:39:46;99904.41;;;11.68;32.78
19672;BME280;9983;51.114;13.788;2023-04-05T12:45:01;99905.78;;;11.07;32.81
19672;BME280;9983;51.114;13.788;2023-04-05T12:50:11;99899.94;;;11.36;34.11
19672;BME280;9983;51.114;13.788;2023-04-05T12:55:15;99900.16;;;10.36;35.45
19672;BME280;9983;51.114;13.788;2023-04-05T13:00:15;99897.84;;;10.57;37.19
19672;BME280;9983;51.114;13.788;2023-04-05T13:05:16;99909.06;;;10.44;37.50
19672;BME280;9983;51.114;13.788;2023-04-05T13:10:18;99906.69;;;10.33;38.85
19672;BME280;9983;51.114;13.788;2023-04-05T13:15:18;99905.97;;;10.23;38.51
19672;BME280;9983;51.114;13.788;2023-04-05T13:20:19;99903.31;;;10.31;36.95
19672;BME280;9983;51.114;13.788;2023-04-05T13:25:20;99896.72;;;10.76;36.54
19672;BME280;9983;51.114;13.788;2023-04-05T13:30:20;99895.41;;;10.88;36.58
19672;BME280;9983;51.114;13.788;2023-04-05T13:35:20;99883.63;;;10.73;35.42
19672;BME280;9983;51.114;13.788;2023-04-05T13:40:20;99883.00;;;10.71;34.26
19672;BME280;9983;51.114;13.788;2023-04-05T13:45:21;99874.41;;;11.24;35.14
19672;BME280;9983;51.114;13.788;2023-04-05T13:50:21;99872.25;;;10.62;35.79
19672;BME280;9983;51.114;13.788;2023-04-05T13:55:21;99875.28;;;10.84;36.72
19672;BME280;9983;51.114;13.788;2023-04-05T14:00:22;99866.16;;;11.58;35.31
19672;BME280;9983;51.114;13.788;2023-04-05T14:05:22;99863.41;;;11.82;35.29
19672;BME280;9983;51.114;13.788;2023-04-05T14:10:22;99872.25;;;11.19;36.08
19672;BME280;9983;51.114;13.788;2023-04-05T14:15:22;99863.72;;;11.95;36.18
19672;BME280;9983;51.114;13.788;2023-04-05T14:20:23;99846.38;;;12.37;34.88
19672;BME280;9983;51.114;13.788;2023-04-05T14:25:23;99848.19;;;12.05;33.91
19672;BME280;9983;51.114;13.788;2023-04-05T14:30:23;99840.84;;;12.99;32.69
19672;BME280;9983;51.114;13.788;2023-04-05T14:35:23;99841.50;;;12.63;32.46
19672;BME280;9983;51.114;13.788;2023-04-05T14:40:24;99843.53;;;12.61;32.83
19672;BME280;9983;51.114;13.788;2023-04-05T14:45:24;99831.59;;;13.83;31.78
19672;BME280;9983;51.114;13.788;2023-04-05T14:50:27;99846.44;;;15.01;30.26
19672;BME280;9983;51.114;13.788;2023-04-05T14:55:31;99829.53;;;14.14;30.45
19672;BME280;9983;51.114;13.788;2023-04-05T15:00:33;99838.84;;;13.38;29.94
19672;BME280;9983;51.114;13.788;2023-04-05T15:05:33;99831.50;;;13.91;29.28
19672;BME280;9983;51.114;13.788;2023-04-05T15:10:33;99831.97;;;13.65;29.50
19672;BME280;9983;51.114;13.788;2023-04-05T15:15:34;99830.94;;;12.31;31.50
19672;BME280;9983;51.114;13.788;2023-04-05T15:20:35;99834.94;;;11.57;32.37
19672;BME280;9983;51.114;13.788;2023-04-05T15:25:35;99827.84;;;10.92;34.10
19672;BME280;9983;51.114;13.788;2023-04-05T15:30:36;99823.44;;;11.24;33.54
19672;BME280;9983;51.114;13.788;2023-04-05T15:35:36;99828.00;;;10.99;35.13
19672;BME280;9983;51.114;13.788;2023-04-05T15:40:36;99824.50;;;11.70;32.85
19672;BME280;9983;51.114;13.788;2023-04-05T15:45:38;99827.63;;;11.18;33.51
19672;BME280;9983;51.114;13.788;2023-04-05T15:50:39;99819.09;;;12.40;32.34
19672;BME280;9983;51.114;13.788;2023-04-05T15:55:39;99822.94;;;12.68;33.27
19672;BME280;9983;51.114;13.788;2023-04-05T16:00:40;99825.81;;;12.21;32.63
19672;BME280;9983;51.114;13.788;2023-04-05T16:05:40;99829.38;;;13.27;33.38
19672;BME280;9983;51.114;13.788;2023-04-05T16:10:40;99823.63;;;15.04;31.03
19672;BME280;9983;51.114;13.788;2023-04-05T16:15:41;99820.25;;;14.38;30.78
19672;BME280;9983;51.114;13.788;2023-04-05T16:20:42;99822.59;;;12.71;32.87
19672;BME280;9983;51.114;13.788;2023-04-05T16:25:43;99818.09;;;13.24;34.00
19672;BME280;9983;51.114;13.788;2023-04-05T16:30:43;99816.19;;;12.95;34.10
19672;BME280;9983;51.114;13.788;2023-04-05T16:35:43;99830.97;;;12.76;34.46
19672;BME280;9983;51.114;13.788;2023-04-05T16:40:44;99827.47;;;12.90;34.31
19672;BME280;9983;51.114;13.788;2023-04-05T16:45:44;99826.16;;;12.64;34.52
19672;BME280;9983;51.114;13.788;2023-04-05T16:50:44;99820.84;;;12.02;35.57
19672;BME280;9983;51.114;13.788;2023-04-05T16:55:45;99824.88;;;12.37;35.04
19672;BME280;9983;51.114;13.788;2023-04-05T17:00:45;99824.38;;;12.33;35.67
19672;BME280;9983;51.114;13.788;2023-04-05T17:05:45;99817.09;;;11.64;36.35
19672;BME280;9983;51.114;13.788;2023-04-05T17:10:45;99831.94;;;11.52;36.59
19672;BME280;9983;51.114;13.788;2023-04-05T17:15:46;99825.16;;;10.68;39.08
19672;BME280;9983;51.114;13.788;2023-04-05T17:20:47;99830.69;;;10.67;39.54
19672;BME280;9983;51.114;13.788;2023-04-05T17:25:47;99835.56;;;10.87;38.75
19672;BME280;9983;51.114;13.788;2023-04-05T17:30:48;99838.38;;;10.53;40.64
19672;BME280;9983;51.114;13.788;2023-04-05T17:35:48;99834.63;;;10.30;41.31
19672;BME280;9983;51.114;13.788;2023-04-05T17:40:49;99842.56;;;9.30;44.08
19672;BME280;9983;51.114;13.788;2023-04-05T17:45:50;99840.47;;;9.75;42.31
19672;BME280;9983;51.114;13.788;2023-04-05T17:50:51;99848.34;;;9.43;43.50
19672;BME280;9983;51.114;13.788;2023-04-05T17:55:54;99844.34;;;8.95;45.81
19672;BME280;9983;51.114;13.788;2023-04-05T18:00:55;99853.41;;;8.04;50.26
19672;BME280;9983;51.114;13.788;2023-04-05T18:05:55;99857.28;;;8.19;49.74
19672;BME280;9983;51.114;13.788;2023-04-05T18:10:57;99858.31;;;8.89;47.32
19672;BME280;9983;51.114;13.788;2023-04-05T18:15:58;99864.50;;;8.72;48.20
19672;BME280;9983;51.114;13.788;2023-04-05T18:20:59;99872.50;;;9.07;48.46
19672;BME280;9983;51.114;13.788;2023-04-05T18:26:05;99877.75;;;8.28;50.88
19672;BME280;9983;51.114;13.788;2023-04-05T18:31:07;99880.53;;;8.72;49.50
19672;BME280;9983;51.114;13.788;2023-04-05T18:36:08;99888.03;;;8.86;49.19
19672;BME280;9983;51.114;13.788;2023-04-05T18:41:08;99900.41;;;8.87;49.48
19672;BME280;9983;51.114;13.788;2023-04-05T18:46:10;99902.91;;;8.35;51.83
19672;BME280;9983;51.114;13.788;2023-04-05T18:51:17;99892.81;;;8.02;53.52
19672;BME280;9983;51.114;13.788;2023-04-05T18:56:17;99907.22;;;7.82;54.15
19672;BME280;9983;51.114;13.788;2023-04-05T19:01:18;99904.25;;;8.12;52.62
19672;BME280;9983;51.114;13.788;2023-04-05T19:06:19;99899.47;;;8.16;54.45
19672;BME280;9983;51.114;13.788;2023-04-05T19:11:19;99902.09;;;7.98;56.07
19672;BME280;9983;51.114;13.788;2023-04-05T19:16:21;99911.25;;;7.49;55.73
19672;BME280;9983;51.114;13.788;2023-04-05T19:21:21;99917.16;;;7.52;56.25
19672;BME280;9983;51.114;13.788;2023-04-05T19:26:22;99920.59;;;6.87;58.63
19672;BME280;9983;51.114;13.788;2023-04-05T19:31:22;99916.25;;;6.57;59.66
19672;BME280;9983;51.114;13.788;2023-04-05T19:36:22;99917.59;;;6.23;61.38
19672;BME280;9983;51.114;13.788;2023-04-05T19:41:23;99915.28;;;6.68;60.19
19672;BME280;9983;51.114;13.788;2023-04-05T19:46:26;99922.69;;;7.12;59.02
19672;BME280;9983;51.114;13.788;2023-04-05T19:51:27;99921.69;;;7.23;59.30
19672;BME280;9983;51.114;13.788;2023-04-05T19:56:30;99923.41;;;6.66;61.26
19672;BME280;9983;51.114;13.788;2023-04-05T20:01:35;99921.00;;;6.44;62.69
19672;BME280;9983;51.114;13.788;2023-04-05T20:06:35;99918.09;;;6.76;60.87
19672;BME280;9983;51.114;13.788;2023-04-05T20:11:36;99910.19;;;6.36;64.39
19672;BME280;9983;51.114;13.788;2023-04-05T20:16:36;99914.66;;;6.45;65.26
19672;BME280;9983;51.114;13.788;2023-04-05T20:21:37;99905.59;;;6.57;65.64
19672;BME280;9983;51.114;13.788;2023-04-05T20:26:37;99905.19;;;6.52;64.99
19672;BME280;9983;51.114;13.788;2023-04-05T20:31:37;99892.41;;;6.84;63.71
19672;BME280;9983;51.114;13.788;2023-04-05T20:36:48;99902.78;;;7.07;64.29
19672;BME280;9983;51.114;13.788;2023-04-05T20:41:49;99894.78;;;6.88;65.08
19672;BME280;9983;51.114;13.788;2023-04-05T20:46:49;99890.03;;;6.91;63.69
19672;BME280;9983;51.114;13.788;2023-04-05T20:51:50;99889.75;;;6.94;61.62
19672;BME280;9983;51.114;13.788;2023-04-05T20:56:51;99890.28;;;6.98;62.33
19672;BME280;9983;51.114;13.788;2023-04-05T21:01:52;99876.69;;;6.81;63.53
19672;BME280;9983;51.114;13.788;2023-04-05T21:06:52;99885.25;;;6.95;62.22
19672;BME280;9983;51.114;13.788;2023-04-05T21:11:52;99880.22;;;6.72;62.84
19672;BME280;9983;51.114;13.788;2023-04-05T21:16:52;99876.00;;;6.79;62.31
19672;BME280;9983;51.114;13.788;2023-04-05T21:21:53;99877.41;;;6.83;60.73
19672;BME280;9983;51.114;13.788;2023-04-05T21:26:53;99873.75;;;6.65;62.56
19672;BME280;9983;51.114;13.788;2023-04-05T21:31:53;99879.94;;;6.56;62.13
19672;BME280;9983;51.114;13.788;2023-04-05T21:36:53;99865.88;;;6.44;61.68
19672;BME280;9983;51.114;13.788;2023-04-05T21:41:54;99868.38;;;6.07;63.05
19672;BME280;9983;51.114;13.788;2023-04-05T21:46:54;99863.09;;;5.87;64.94
19672;BME280;9983;51.114;13.788;2023-04-05T21:51:56;99869.81;;;5.51;65.79
19672;BME280;9983;51.114;13.788;2023-04-05T21:56:56;99872.19;;;4.82;72.28
19672;BME280;9983;51.114;13.788;2023-04-05T22:01:56;99854.66;;;4.90;72.36
19672;BME280;9983;51.114;13.788;2023-04-05T22:06:57;99850.09;;;5.02;71.50
19672;BME280;9983;51.114;13.788;2023-04-05T22:11:58;99845.78;;;5.01;71.13
19672;BME280;9983;51.114;13.788;2023-04-05T22:16:58;99852.44;;;4.11;76.72
19672;BME280;9983;51.114;13.788;2023-04-05T22:21:58;99857.16;;;4.50;74.79
19672;BME280;9983;51.114;13.788;2023-04-05T22:26:59;99849.63;;;4.55;74.89
19672;BME280;9983;51.114;13.788;2023-04-05T22:31:59;99848.41;;;4.60;72.47
19672;BME280;9983;51.114;13.788;2023-04-05T22:37:00;99848.88;;;4.01;75.72
19672;BME280;9983;51.114;13.788;2023-04-05T22:42:00;99847.19;;;3.77;77.74
19672;BME280;9983;51.114;13.788;2023-04-05T22:47:00;99849.09;;;3.87;77.65
19672;BME280;9983;51.114;13.788;2023-04-05T22:52:00;99853.66;;;4.07;75.48
19672;BME280;9983;51.114;13.788;2023-04-05T22:57:01;99847.34;;;4.19;75.18
19672;BME280;9983;51.114;13.788;2023-04-05T23:02:01;99846.22;;;3.90;77.39
19672;BME280;9983;51.114;13.788;2023-04-05T23:07:01;99840.50;;;3.51;79.22
19672;BME280;9983;51.114;13.788;2023-04-05T23:12:01;99850.34;;;3.38;80.30
19672;BME280;9983;51.114;13.788;2023-04-05T23:17:02;99840.72;;;3.26;80.68
19672;BME280;9983;51.114;13.788;2023-04-05T23:22:03;99855.53;;;2.71;84.27
19672;BME280;9983;51.114;13.788;2023-04-05T23:27:04;99847.81;;;2.57;84.37
19672;BME280;9983;51.114;13.788;2023-04-05T23:32:04;99841.63;;;2.21;85.71
19672;BME280;9983;51.114;13.788;2023-04-05T23:37:05;99850.63;;;1.95;87.94
19672;BME280;9983;51.114;13.788;2023-04-05T23:42:06;99850.06;;;2.26;86.19
19672;BME280;9983;51.114;13.788;2023-04-05T23:47:06;99846.00;;;1.86;88.16
19672;BME280;9983;51.114;13.788;2023-04-05T23:52:06;99831.63;;;1.90;89.28
19672;BME280;9983;51.114;13.788;2023-04-05T23:57:07;99833.16;;;1.69;90.44
